sensor_id;sensor_type;location;lat;lon;timestamp;temperature;humidity
814;DHT22;389;48.710;9.392;2024-01-25T00:01:30;10.30;95.80
814;DHT22;389;48.710;9.392;2024-01-25T00:03:55;10.30;95.70
814;DHT22;389;48.710;9.392;2024-01-25T00:06:21;10.40;95.70
814;DHT22;389;48.710;9.392;2024-01-25T00:08:47;10.40;95.60
814;DHT22;389;48.710;9.392;2024-01-25T00:11:13;10.50;95.60
814;DHT22;389;48.710;9.392;2024-01-25T00:13:38;10.50;95.50
814;DHT22;389;48.710;9.392;2024-01-25T00:16:04;10.50;95.50
814;DHT22;389;48.710;9.392;2024-01-25T00:18:30;10.50;95.40
814;DHT22;389;48.710;9.392;2024-01-25T00:20:56;10.60;95.40
814;DHT22;389;48.710;9.392;2024-01-25T00:23:22;10.60;95.20
814;DHT22;389;48.710;9.392;2024-01-25T00:25:47;10.70;95.20
814;DHT22;389;48.710;9.392;2024-01-25T00:28:13;10.70;95.10
814;DHT22;389;48.710;9.392;2024-01-25T00:30:39;10.70;95.00
814;DHT22;389;48.710;9.392;2024-01-25T00:33:05;10.80;95.00
814;DHT22;389;48.710;9.392;2024-01-25T00:35:31;10.80;94.90
814;DHT22;389;48.710;9.392;2024-01-25T00:37:57;10.90;94.90
814;DHT22;389;48.710;9.392;2024-01-25T00:40:23;10.90;94.90
814;DHT22;389;48.710;9.392;2024-01-25T00:42:49;10.90;94.80
814;DHT22;389;48.710;9.392;2024-01-25T00:45:19;11.00;94.80
814;DHT22;389;48.710;9.392;2024-01-25T00:47:46;11.00;94.70
814;DHT22;389;48.710;9.392;2024-01-25T00:50:12;11.00;94.70
814;DHT22;389;48.710;9.392;2024-01-25T00:52:38;11.10;94.70
814;DHT22;389;48.710;9.392;2024-01-25T00:55:04;11.10;94.80
814;DHT22;389;48.710;9.392;2024-01-25T00:57:31;11.10;94.80
814;DHT22;389;48.710;9.392;2024-01-25T00:59:58;11.20;94.80
814;DHT22;389;48.710;9.392;2024-01-25T01:02:26;11.20;94.80
814;DHT22;389;48.710;9.392;2024-01-25T01:04:59;11.20;94.80
814;DHT22;389;48.710;9.392;2024-01-25T01:07:24;11.20;94.80
814;DHT22;389;48.710;9.392;2024-01-25T01:09:50;11.20;94.90
814;DHT22;389;48.710;9.392;2024-01-25T01:12:16;11.30;94.90
814;DHT22;389;48.710;9.392;2024-01-25T01:14:42;11.30;94.90
814;DHT22;389;48.710;9.392;2024-01-25T01:17:08;11.30;94.90
814;DHT22;389;48.710;9.392;2024-01-25T01:19:33;11.40;94.90
814;DHT22;389;48.710;9.392;2024-01-25T01:21:59;11.40;94.80
814;DHT22;389;48.710;9.392;2024-01-25T01:24:24;11.40;94.80
814;DHT22;389;48.710;9.392;2024-01-25T01:26:50;11.40;94.90
814;DHT22;389;48.710;9.392;2024-01-25T01:29:16;11.40;94.90
814;DHT22;389;48.710;9.392;2024-01-25T01:31:42;11.40;94.90
814;DHT22;389;48.710;9.392;2024-01-25T01:34:08;11.40;94.90
814;DHT22;389;48.710;9.392;2024-01-25T01:36:34;11.40;94.90
814;DHT22;389;48.710;9.392;2024-01-25T01:38:59;11.40;94.90
814;DHT22;389;48.710;9.392;2024-01-25T01:41:25;11.40;94.90
814;DHT22;389;48.710;9.392;2024-01-25T01:43:55;11.50;94.90
814;DHT22;389;48.710;9.392;2024-01-25T01:49:00;11.50;94.70
814;DHT22;389;48.710;9.392;2024-01-25T01:51:26;11.40;94.70
814;DHT22;389;48.710;9.392;2024-01-25T01:53:54;11.40;94.80
814;DHT22;389;48.710;9.392;2024-01-25T01:56:21;11.40;94.90
814;DHT22;389;48.710;9.392;2024-01-25T01:58:48;11.40;95.00
814;DHT22;389;48.710;9.392;2024-01-25T02:01:14;11.40;95.20
814;DHT22;389;48.710;9.392;2024-01-25T02:03:40;11.30;95.20
814;DHT22;389;48.710;9.392;2024-01-25T02:06:06;11.30;95.20
814;DHT22;389;48.710;9.392;2024-01-25T02:08:32;11.30;95.30
814;DHT22;389;48.710;9.392;2024-01-25T02:10:58;11.30;95.30
814;DHT22;389;48.710;9.392;2024-01-25T02:13:24;11.30;95.20
814;DHT22;389;48.710;9.392;2024-01-25T02:15:49;11.30;95.20
814;DHT22;389;48.710;9.392;2024-01-25T02:18:15;11.30;95.10
814;DHT22;389;48.710;9.392;2024-01-25T02:20:41;11.40;95.00
814;DHT22;389;48.710;9.392;2024-01-25T02:23:06;11.40;94.90
814;DHT22;389;48.710;9.392;2024-01-25T02:25:32;11.40;94.80
814;DHT22;389;48.710;9.392;2024-01-25T02:27:58;11.40;94.70
814;DHT22;389;48.710;9.392;2024-01-25T02:30:23;11.40;94.60
814;DHT22;389;48.710;9.392;2024-01-25T02:32:49;11.40;94.60
814;DHT22;389;48.710;9.392;2024-01-25T02:35:15;11.40;94.50
814;DHT22;389;48.710;9.392;2024-01-25T02:37:40;11.40;94.40
814;DHT22;389;48.710;9.392;2024-01-25T02:40:06;11.40;94.40
814;DHT22;389;48.710;9.392;2024-01-25T02:42:32;11.40;94.30
814;DHT22;389;48.710;9.392;2024-01-25T02:44:57;11.40;94.20
814;DHT22;389;48.710;9.392;2024-01-25T02:47:23;11.40;94.30
814;DHT22;389;48.710;9.392;2024-01-25T02:49:49;11.50;94.20
814;DHT22;389;48.710;9.392;2024-01-25T02:52:14;11.50;94.20
814;DHT22;389;48.710;9.392;2024-01-25T02:54:40;11.50;94.30
814;DHT22;389;48.710;9.392;2024-01-25T02:57:05;11.40;94.10
814;DHT22;389;48.710;9.392;2024-01-25T02:59:31;11.40;94.10
814;DHT22;389;48.710;9.392;2024-01-25T03:01:57;11.40;94.20
814;DHT22;389;48.710;9.392;2024-01-25T03:04:22;11.40;94.10
814;DHT22;389;48.710;9.392;2024-01-25T03:06:48;11.40;94.10
814;DHT22;389;48.710;9.392;2024-01-25T03:09:14;11.40;94.00
814;DHT22;389;48.710;9.392;2024-01-25T03:11:39;11.40;94.00
814;DHT22;389;48.710;9.392;2024-01-25T03:14:05;11.40;93.90
814;DHT22;389;48.710;9.392;2024-01-25T03:16:31;11.40;93.90
814;DHT22;389;48.710;9.392;2024-01-25T03:18:56;11.40;93.90
814;DHT22;389;48.710;9.392;2024-01-25T03:21:22;11.40;94.00
814;DHT22;389;48.710;9.392;2024-01-25T03:23:48;11.40;94.00
814;DHT22;389;48.710;9.392;2024-01-25T03:26:14;11.40;94.00
814;DHT22;389;48.710;9.392;2024-01-25T03:28:39;11.40;94.00
814;DHT22;389;48.710;9.392;2024-01-25T03:31:06;11.40;94.00
814;DHT22;389;48.710;9.392;2024-01-25T03:33:31;11.40;94.00
814;DHT22;389;48.710;9.392;2024-01-25T03:36:04;11.40;94.00
814;DHT22;389;48.710;9.392;2024-01-25T03:38:30;11.40;94.10
814;DHT22;389;48.710;9.392;2024-01-25T03:40:56;11.40;94.10
814;DHT22;389;48.710;9.392;2024-01-25T03:43:23;11.40;94.10
814;DHT22;389;48.710;9.392;2024-01-25T03:45:49;11.40;94.30
814;DHT22;389;48.710;9.392;2024-01-25T03:48:15;11.30;94.30
814;DHT22;389;48.710;9.392;2024-01-25T03:50:41;11.30;94.30
814;DHT22;389;48.710;9.392;2024-01-25T03:53:07;11.30;94.40
814;DHT22;389;48.710;9.392;2024-01-25T03:55:32;11.30;94.50
814;DHT22;389;48.710;9.392;2024-01-25T03:57:58;11.20;94.60
814;DHT22;389;48.710;9.392;2024-01-25T04:00:24;11.20;94.60
814;DHT22;389;48.710;9.392;2024-01-25T04:02:50;11.20;94.60
814;DHT22;389;48.710;9.392;2024-01-25T04:05:16;11.20;94.60
814;DHT22;389;48.710;9.392;2024-01-25T04:07:41;11.20;94.60
814;DHT22;389;48.710;9.392;2024-01-25T04:10:07;11.20;94.70
814;DHT22;389;48.710;9.392;2024-01-25T04:12:33;11.10;94.70
814;DHT22;389;48.710;9.392;2024-01-25T04:14:58;11.10;94.90
814;DHT22;389;48.710;9.392;2024-01-25T04:17:24;11.10;94.90
814;DHT22;389;48.710;9.392;2024-01-25T04:19:49;11.10;95.00
814;DHT22;389;48.710;9.392;2024-01-25T04:22:15;11.10;95.10
814;DHT22;389;48.710;9.392;2024-01-25T04:24:41;11.00;95.10
814;DHT22;389;48.710;9.392;2024-01-25T04:27:07;11.10;95.10
814;DHT22;389;48.710;9.392;2024-01-25T04:29:32;11.00;95.10
814;DHT22;389;48.710;9.392;2024-01-25T04:31:58;11.00;95.10
814;DHT22;389;48.710;9.392;2024-01-25T04:34:24;11.00;95.20
814;DHT22;389;48.710;9.392;2024-01-25T04:36:49;11.00;95.20
814;DHT22;389;48.710;9.392;2024-01-25T04:39:15;11.00;95.30
814;DHT22;389;48.710;9.392;2024-01-25T04:41:41;10.90;95.30
814;DHT22;389;48.710;9.392;2024-01-25T04:44:06;11.00;95.50
814;DHT22;389;48.710;9.392;2024-01-25T04:46:32;10.90;95.50
814;DHT22;389;48.710;9.392;2024-01-25T04:49:03;10.90;95.50
814;DHT22;389;48.710;9.392;2024-01-25T04:51:28;10.90;95.60
814;DHT22;389;48.710;9.392;2024-01-25T04:53:54;10.90;95.60
814;DHT22;389;48.710;9.392;2024-01-25T04:56:20;10.80;95.60
814;DHT22;389;48.710;9.392;2024-01-25T04:58:45;10.80;95.60
814;DHT22;389;48.710;9.392;2024-01-25T05:01:11;10.90;95.70
814;DHT22;389;48.710;9.392;2024-01-25T05:03:37;10.80;95.60
814;DHT22;389;48.710;9.392;2024-01-25T05:06:03;10.90;95.70
814;DHT22;389;48.710;9.392;2024-01-25T05:08:29;10.80;95.60
814;DHT22;389;48.710;9.392;2024-01-25T05:10:54;10.80;95.60
814;DHT22;389;48.710;9.392;2024-01-25T05:13:20;10.80;95.60
814;DHT22;389;48.710;9.392;2024-01-25T05:15:46;10.80;95.50
814;DHT22;389;48.710;9.392;2024-01-25T05:18:11;10.70;95.10
814;DHT22;389;48.710;9.392;2024-01-25T05:20:37;10.70;94.80
814;DHT22;389;48.710;9.392;2024-01-25T05:23:04;10.60;94.90
814;DHT22;389;48.710;9.392;2024-01-25T05:25:30;10.60;94.70
814;DHT22;389;48.710;9.392;2024-01-25T05:27:56;10.50;94.70
814;DHT22;389;48.710;9.392;2024-01-25T05:30:23;10.50;94.70
814;DHT22;389;48.710;9.392;2024-01-25T05:32:49;10.40;94.50
814;DHT22;389;48.710;9.392;2024-01-25T05:35:15;10.30;94.30
814;DHT22;389;48.710;9.392;2024-01-25T05:37:41;10.20;94.30
814;DHT22;389;48.710;9.392;2024-01-25T05:40:08;10.20;94.40
814;DHT22;389;48.710;9.392;2024-01-25T05:42:35;10.10;94.40
814;DHT22;389;48.710;9.392;2024-01-25T05:45:02;10.10;94.50
814;DHT22;389;48.710;9.392;2024-01-25T05:47:29;10.00;94.50
814;DHT22;389;48.710;9.392;2024-01-25T05:49:54;9.90;95.10
814;DHT22;389;48.710;9.392;2024-01-25T05:52:20;9.80;95.20
814;DHT22;389;48.710;9.392;2024-01-25T05:54:47;9.80;95.30
814;DHT22;389;48.710;9.392;2024-01-25T05:57:13;9.70;95.40
814;DHT22;389;48.710;9.392;2024-01-25T05:59:38;9.60;95.40
814;DHT22;389;48.710;9.392;2024-01-25T06:02:04;9.60;95.50
814;DHT22;389;48.710;9.392;2024-01-25T06:04:30;9.50;95.50
814;DHT22;389;48.710;9.392;2024-01-25T06:06:56;9.40;95.60
814;DHT22;389;48.710;9.392;2024-01-25T06:09:22;9.30;95.70
814;DHT22;389;48.710;9.392;2024-01-25T06:11:48;9.20;95.80
814;DHT22;389;48.710;9.392;2024-01-25T06:14:14;9.10;95.80
814;DHT22;389;48.710;9.392;2024-01-25T06:16:39;9.00;95.80
814;DHT22;389;48.710;9.392;2024-01-25T06:19:05;9.00;95.80
814;DHT22;389;48.710;9.392;2024-01-25T06:21:30;8.90;95.80
814;DHT22;389;48.710;9.392;2024-01-25T06:23:56;8.80;95.80
814;DHT22;389;48.710;9.392;2024-01-25T06:26:21;8.70;96.00
814;DHT22;389;48.710;9.392;2024-01-25T06:28:47;8.60;96.10
814;DHT22;389;48.710;9.392;2024-01-25T06:31:12;8.50;96.20
814;DHT22;389;48.710;9.392;2024-01-25T06:33:38;8.40;96.30
814;DHT22;389;48.710;9.392;2024-01-25T06:36:03;8.30;96.40
814;DHT22;389;48.710;9.392;2024-01-25T06:38:29;8.20;96.40
814;DHT22;389;48.710;9.392;2024-01-25T06:40:54;8.20;96.60
814;DHT22;389;48.710;9.392;2024-01-25T06:43:20;8.10;96.70
814;DHT22;389;48.710;9.392;2024-01-25T06:45:46;8.00;96.90
814;DHT22;389;48.710;9.392;2024-01-25T06:48:11;7.90;97.00
814;DHT22;389;48.710;9.392;2024-01-25T06:50:37;7.90;97.20
814;DHT22;389;48.710;9.392;2024-01-25T06:53:04;7.80;97.20
814;DHT22;389;48.710;9.392;2024-01-25T06:55:29;7.70;97.30
814;DHT22;389;48.710;9.392;2024-01-25T06:57:55;7.60;97.40
814;DHT22;389;48.710;9.392;2024-01-25T07:00:20;7.60;97.50
814;DHT22;389;48.710;9.392;2024-01-25T07:02:47;7.50;97.50
814;DHT22;389;48.710;9.392;2024-01-25T07:05:12;7.50;97.60
814;DHT22;389;48.710;9.392;2024-01-25T07:07:38;7.30;97.60
814;DHT22;389;48.710;9.392;2024-01-25T07:10:05;7.20;97.70
814;DHT22;389;48.710;9.392;2024-01-25T07:12:31;7.10;97.70
814;DHT22;389;48.710;9.392;2024-01-25T07:14:57;7.00;97.80
814;DHT22;389;48.710;9.392;2024-01-25T07:17:23;7.00;98.20
814;DHT22;389;48.710;9.392;2024-01-25T07:19:48;6.90;98.10
814;DHT22;389;48.710;9.392;2024-01-25T07:22:14;6.90;98.70
814;DHT22;389;48.710;9.392;2024-01-25T07:24:40;6.80;98.90
814;DHT22;389;48.710;9.392;2024-01-25T07:27:06;6.90;99.40
814;DHT22;389;48.710;9.392;2024-01-25T07:29:31;6.90;99.70
814;DHT22;389;48.710;9.392;2024-01-25T07:31:57;6.80;99.60
814;DHT22;389;48.710;9.392;2024-01-25T07:34:23;6.80;99.60
814;DHT22;389;48.710;9.392;2024-01-25T07:36:48;6.80;99.80
814;DHT22;389;48.710;9.392;2024-01-25T07:39:14;6.70;99.90
814;DHT22;389;48.710;9.392;2024-01-25T07:41:39;6.70;99.90
814;DHT22;389;48.710;9.392;2024-01-25T07:44:05;6.70;99.90
814;DHT22;389;48.710;9.392;2024-01-25T07:46:31;6.70;99.90
814;DHT22;389;48.710;9.392;2024-01-25T07:48:57;6.70;99.90
814;DHT22;389;48.710;9.392;2024-01-25T07:51:22;6.60;99.90
814;DHT22;389;48.710;9.392;2024-01-25T07:53:48;6.60;99.90
814;DHT22;389;48.710;9.392;2024-01-25T07:56:13;6.60;99.90
814;DHT22;389;48.710;9.392;2024-01-25T07:58:39;6.60;99.90
814;DHT22;389;48.710;9.392;2024-01-25T08:01:05;6.60;99.90
814;DHT22;389;48.710;9.392;2024-01-25T08:03:32;6.60;99.90
814;DHT22;389;48.710;9.392;2024-01-25T08:05:59;6.70;99.90
814;DHT22;389;48.710;9.392;2024-01-25T08:08:24;6.70;99.90
814;DHT22;389;48.710;9.392;2024-01-25T08:10:50;6.70;99.90
814;DHT22;389;48.710;9.392;2024-01-25T08:13:15;6.70;99.90
814;DHT22;389;48.710;9.392;2024-01-25T08:15:41;6.70;99.90
814;DHT22;389;48.710;9.392;2024-01-25T08:18:07;6.80;99.90
814;DHT22;389;48.710;9.392;2024-01-25T08:20:33;6.80;99.90
814;DHT22;389;48.710;9.392;2024-01-25T08:22:58;6.90;99.90
814;DHT22;389;48.710;9.392;2024-01-25T08:25:25;6.90;99.90
814;DHT22;389;48.710;9.392;2024-01-25T08:27:52;7.00;99.90
814;DHT22;389;48.710;9.392;2024-01-25T08:30:17;7.10;99.90
814;DHT22;389;48.710;9.392;2024-01-25T08:32:43;7.20;99.90
814;DHT22;389;48.710;9.392;2024-01-25T08:35:08;7.20;99.90
814;DHT22;389;48.710;9.392;2024-01-25T08:37:34;7.30;99.90
814;DHT22;389;48.710;9.392;2024-01-25T08:40:02;7.30;99.90
814;DHT22;389;48.710;9.392;2024-01-25T08:42:29;7.40;99.90
814;DHT22;389;48.710;9.392;2024-01-25T08:44:55;7.50;99.90
814;DHT22;389;48.710;9.392;2024-01-25T08:47:20;7.50;99.90
814;DHT22;389;48.710;9.392;2024-01-25T08:49:46;7.50;99.90
814;DHT22;389;48.710;9.392;2024-01-25T08:52:12;7.60;99.90
814;DHT22;389;48.710;9.392;2024-01-25T08:54:37;7.60;99.90
814;DHT22;389;48.710;9.392;2024-01-25T08:57:04;7.70;99.90
814;DHT22;389;48.710;9.392;2024-01-25T08:59:30;7.80;99.90
814;DHT22;389;48.710;9.392;2024-01-25T09:01:58;7.80;99.90
814;DHT22;389;48.710;9.392;2024-01-25T09:04:24;8.00;99.90
814;DHT22;389;48.710;9.392;2024-01-25T09:06:49;8.00;99.90
814;DHT22;389;48.710;9.392;2024-01-25T09:09:15;8.10;99.90
814;DHT22;389;48.710;9.392;2024-01-25T09:11:40;8.20;99.90
814;DHT22;389;48.710;9.392;2024-01-25T09:14:06;8.30;99.90
814;DHT22;389;48.710;9.392;2024-01-25T09:16:31;8.40;99.90
814;DHT22;389;48.710;9.392;2024-01-25T09:18:57;8.50;99.90
814;DHT22;389;48.710;9.392;2024-01-25T09:21:23;8.70;99.90
814;DHT22;389;48.710;9.392;2024-01-25T09:23:48;8.80;99.90
814;DHT22;389;48.710;9.392;2024-01-25T09:26:14;9.00;99.90
814;DHT22;389;48.710;9.392;2024-01-25T09:28:39;9.10;99.90
814;DHT22;389;48.710;9.392;2024-01-25T09:31:05;9.20;99.90
814;DHT22;389;48.710;9.392;2024-01-25T09:33:31;9.40;99.40
814;DHT22;389;48.710;9.392;2024-01-25T09:35:56;9.50;98.70
814;DHT22;389;48.710;9.392;2024-01-25T09:38:22;9.70;98.40
814;DHT22;389;48.710;9.392;2024-01-25T09:40:48;9.90;98.30
814;DHT22;389;48.710;9.392;2024-01-25T09:43:14;10.20;97.50
814;DHT22;389;48.710;9.392;2024-01-25T09:45:41;10.30;96.80
814;DHT22;389;48.710;9.392;2024-01-25T09:48:07;10.60;96.60
814;DHT22;389;48.710;9.392;2024-01-25T09:50:33;10.80;96.20
814;DHT22;389;48.710;9.392;2024-01-25T09:52:59;11.10;95.80
814;DHT22;389;48.710;9.392;2024-01-25T09:55:26;11.30;95.30
814;DHT22;389;48.710;9.392;2024-01-25T09:57:55;11.50;94.40
814;DHT22;389;48.710;9.392;2024-01-25T10:00:22;11.70;94.00
814;DHT22;389;48.710;9.392;2024-01-25T10:02:48;11.90;93.30
814;DHT22;389;48.710;9.392;2024-01-25T10:05:15;12.00;92.70
814;DHT22;389;48.710;9.392;2024-01-25T10:07:42;12.20;92.40
814;DHT22;389;48.710;9.392;2024-01-25T10:10:09;12.40;92.20
814;DHT22;389;48.710;9.392;2024-01-25T10:12:36;12.60;92.00
814;DHT22;389;48.710;9.392;2024-01-25T10:15:03;12.70;91.70
814;DHT22;389;48.710;9.392;2024-01-25T10:17:29;12.70;91.20
814;DHT22;389;48.710;9.392;2024-01-25T10:19:55;12.60;90.60
814;DHT22;389;48.710;9.392;2024-01-25T10:22:21;12.50;90.00
814;DHT22;389;48.710;9.392;2024-01-25T10:24:46;12.40;89.80
814;DHT22;389;48.710;9.392;2024-01-25T10:27:16;12.30;89.20
814;DHT22;389;48.710;9.392;2024-01-25T10:29:42;12.20;88.80
814;DHT22;389;48.710;9.392;2024-01-25T10:32:08;12.10;89.00
814;DHT22;389;48.710;9.392;2024-01-25T10:34:36;12.10;88.90
814;DHT22;389;48.710;9.392;2024-01-25T10:37:05;12.10;89.20
814;DHT22;389;48.710;9.392;2024-01-25T10:39:32;12.00;88.80
814;DHT22;389;48.710;9.392;2024-01-25T10:41:59;12.00;88.90
814;DHT22;389;48.710;9.392;2024-01-25T10:44:25;11.90;88.50
814;DHT22;389;48.710;9.392;2024-01-25T10:46:51;11.80;88.90
814;DHT22;389;48.710;9.392;2024-01-25T10:49:17;11.80;89.20
814;DHT22;389;48.710;9.392;2024-01-25T10:51:44;11.70;89.70
814;DHT22;389;48.710;9.392;2024-01-25T10:54:11;11.70;89.60
814;DHT22;389;48.710;9.392;2024-01-25T10:56:44;11.70;89.90
814;DHT22;389;48.710;9.392;2024-01-25T10:59:11;11.60;89.80
814;DHT22;389;48.710;9.392;2024-01-25T11:01:37;11.70;90.00
814;DHT22;389;48.710;9.392;2024-01-25T11:04:11;11.70;89.90
814;DHT22;389;48.710;9.392;2024-01-25T11:06:37;11.80;89.80
814;DHT22;389;48.710;9.392;2024-01-25T11:09:06;11.90;89.70
814;DHT22;389;48.710;9.392;2024-01-25T11:11:32;11.90;89.70
814;DHT22;389;48.710;9.392;2024-01-25T11:13:59;12.00;89.80
814;DHT22;389;48.710;9.392;2024-01-25T11:16:32;12.10;89.20
814;DHT22;389;48.710;9.392;2024-01-25T11:19:00;12.20;89.00
814;DHT22;389;48.710;9.392;2024-01-25T11:21:58;12.30;88.90
814;DHT22;389;48.710;9.392;2024-01-25T11:24:27;12.50;88.60
814;DHT22;389;48.710;9.392;2024-01-25T11:26:54;12.50;87.60
814;DHT22;389;48.710;9.392;2024-01-25T11:29:21;12.80;87.90
814;DHT22;389;48.710;9.392;2024-01-25T11:31:50;13.00;88.00
814;DHT22;389;48.710;9.392;2024-01-25T11:34:16;13.20;86.80
814;DHT22;389;48.710;9.392;2024-01-25T11:36:44;13.40;86.70
814;DHT22;389;48.710;9.392;2024-01-25T11:39:10;13.50;86.20
814;DHT22;389;48.710;9.392;2024-01-25T11:41:37;13.70;86.00
814;DHT22;389;48.710;9.392;2024-01-25T11:44:03;13.70;84.60
814;DHT22;389;48.710;9.392;2024-01-25T11:46:30;13.90;84.10
814;DHT22;389;48.710;9.392;2024-01-25T11:48:56;14.00;84.20
814;DHT22;389;48.710;9.392;2024-01-25T11:51:22;14.20;84.00
814;DHT22;389;48.710;9.392;2024-01-25T11:53:48;14.30;83.90
814;DHT22;389;48.710;9.392;2024-01-25T11:56:17;14.40;83.40
814;DHT22;389;48.710;9.392;2024-01-25T11:58:45;14.50;83.60
814;DHT22;389;48.710;9.392;2024-01-25T12:01:11;14.50;82.80
814;DHT22;389;48.710;9.392;2024-01-25T12:03:38;14.50;82.60
814;DHT22;389;48.710;9.392;2024-01-25T12:06:04;14.50;82.60
814;DHT22;389;48.710;9.392;2024-01-25T12:08:32;14.70;82.80
814;DHT22;389;48.710;9.392;2024-01-25T12:11:05;14.70;82.60
814;DHT22;389;48.710;9.392;2024-01-25T12:13:35;14.70;81.90
814;DHT22;389;48.710;9.392;2024-01-25T12:16:02;14.70;81.40
814;DHT22;389;48.710;9.392;2024-01-25T12:18:29;14.70;81.90
814;DHT22;389;48.710;9.392;2024-01-25T12:20:57;14.70;81.60
814;DHT22;389;48.710;9.392;2024-01-25T12:23:23;14.70;82.00
814;DHT22;389;48.710;9.392;2024-01-25T12:25:48;14.60;81.80
814;DHT22;389;48.710;9.392;2024-01-25T12:28:14;14.50;81.60
814;DHT22;389;48.710;9.392;2024-01-25T12:30:39;14.40;81.70
814;DHT22;389;48.710;9.392;2024-01-25T12:33:05;14.40;81.90
814;DHT22;389;48.710;9.392;2024-01-25T12:35:30;14.30;81.80
814;DHT22;389;48.710;9.392;2024-01-25T12:37:56;14.30;82.70
814;DHT22;389;48.710;9.392;2024-01-25T12:40:22;14.20;82.30
814;DHT22;389;48.710;9.392;2024-01-25T12:42:47;14.10;82.40
814;DHT22;389;48.710;9.392;2024-01-25T12:45:13;14.10;82.50
814;DHT22;389;48.710;9.392;2024-01-25T12:47:38;14.00;82.90
814;DHT22;389;48.710;9.392;2024-01-25T12:50:05;14.00;83.40
814;DHT22;389;48.710;9.392;2024-01-25T12:52:31;14.00;83.20
814;DHT22;389;48.710;9.392;2024-01-25T12:54:56;14.10;83.20
814;DHT22;389;48.710;9.392;2024-01-25T12:57:22;14.10;83.00
814;DHT22;389;48.710;9.392;2024-01-25T12:59:47;14.20;82.30
814;DHT22;389;48.710;9.392;2024-01-25T13:02:13;14.10;82.20
814;DHT22;389;48.710;9.392;2024-01-25T13:04:39;14.10;82.30
814;DHT22;389;48.710;9.392;2024-01-25T13:07:05;14.10;82.50
814;DHT22;389;48.710;9.392;2024-01-25T13:09:31;14.00;82.60
814;DHT22;389;48.710;9.392;2024-01-25T13:12:00;14.00;82.90
814;DHT22;389;48.710;9.392;2024-01-25T13:14:25;13.80;83.00
814;DHT22;389;48.710;9.392;2024-01-25T13:16:51;13.80;83.30
814;DHT22;389;48.710;9.392;2024-01-25T13:19:17;13.80;83.30
814;DHT22;389;48.710;9.392;2024-01-25T13:21:42;13.70;83.10
814;DHT22;389;48.710;9.392;2024-01-25T13:24:08;13.70;83.50
814;DHT22;389;48.710;9.392;2024-01-25T13:26:35;13.60;83.50
814;DHT22;389;48.710;9.392;2024-01-25T13:29:01;13.40;83.40
814;DHT22;389;48.710;9.392;2024-01-25T13:31:26;13.50;83.60
814;DHT22;389;48.710;9.392;2024-01-25T13:33:52;13.50;83.50
814;DHT22;389;48.710;9.392;2024-01-25T13:36:17;13.40;83.60
814;DHT22;389;48.710;9.392;2024-01-25T13:38:43;13.40;83.30
814;DHT22;389;48.710;9.392;2024-01-25T13:41:08;13.50;83.40
814;DHT22;389;48.710;9.392;2024-01-25T13:43:34;13.50;83.40
814;DHT22;389;48.710;9.392;2024-01-25T13:46:00;13.50;83.30
814;DHT22;389;48.710;9.392;2024-01-25T13:48:25;13.40;83.30
814;DHT22;389;48.710;9.392;2024-01-25T13:50:51;13.30;83.40
814;DHT22;389;48.710;9.392;2024-01-25T13:53:17;13.40;83.40
814;DHT22;389;48.710;9.392;2024-01-25T13:55:43;13.40;83.30
814;DHT22;389;48.710;9.392;2024-01-25T13:58:08;13.40;83.80
814;DHT22;389;48.710;9.392;2024-01-25T14:00:34;13.20;84.00
814;DHT22;389;48.710;9.392;2024-01-25T14:02:59;13.30;84.10
814;DHT22;389;48.710;9.392;2024-01-25T14:05:25;13.30;83.90
814;DHT22;389;48.710;9.392;2024-01-25T14:07:51;13.20;84.20
814;DHT22;389;48.710;9.392;2024-01-25T14:10:16;13.10;84.40
814;DHT22;389;48.710;9.392;2024-01-25T14:12:42;13.00;84.70
814;DHT22;389;48.710;9.392;2024-01-25T14:15:09;12.90;85.80
814;DHT22;389;48.710;9.392;2024-01-25T14:17:34;12.90;85.50
814;DHT22;389;48.710;9.392;2024-01-25T14:20:02;13.00;85.90
814;DHT22;389;48.710;9.392;2024-01-25T14:22:28;13.10;86.10
814;DHT22;389;48.710;9.392;2024-01-25T14:24:54;13.10;85.50
814;DHT22;389;48.710;9.392;2024-01-25T14:27:19;13.20;85.50
814;DHT22;389;48.710;9.392;2024-01-25T14:29:45;13.20;85.40
814;DHT22;389;48.710;9.392;2024-01-25T14:32:10;13.20;85.40
814;DHT22;389;48.710;9.392;2024-01-25T14:34:36;13.10;85.40
814;DHT22;389;48.710;9.392;2024-01-25T14:37:02;13.10;85.30
814;DHT22;389;48.710;9.392;2024-01-25T14:39:27;13.10;84.50
814;DHT22;389;48.710;9.392;2024-01-25T14:41:53;13.10;84.50
814;DHT22;389;48.710;9.392;2024-01-25T14:44:19;13.20;84.70
814;DHT22;389;48.710;9.392;2024-01-25T14:46:45;13.00;84.80
814;DHT22;389;48.710;9.392;2024-01-25T14:49:11;13.00;85.40
814;DHT22;389;48.710;9.392;2024-01-25T14:51:37;13.00;85.50
814;DHT22;389;48.710;9.392;2024-01-25T14:54:02;12.90;85.30
814;DHT22;389;48.710;9.392;2024-01-25T14:56:28;12.80;85.40
814;DHT22;389;48.710;9.392;2024-01-25T14:58:53;12.80;85.80
814;DHT22;389;48.710;9.392;2024-01-25T15:01:21;12.70;85.90
814;DHT22;389;48.710;9.392;2024-01-25T15:03:53;12.60;86.20
814;DHT22;389;48.710;9.392;2024-01-25T15:06:18;12.60;86.50
814;DHT22;389;48.710;9.392;2024-01-25T15:08:44;12.60;86.70
814;DHT22;389;48.710;9.392;2024-01-25T15:11:10;12.50;86.90
814;DHT22;389;48.710;9.392;2024-01-25T15:13:35;12.50;87.50
814;DHT22;389;48.710;9.392;2024-01-25T15:16:02;12.40;87.80
814;DHT22;389;48.710;9.392;2024-01-25T15:18:27;12.30;88.20
814;DHT22;389;48.710;9.392;2024-01-25T15:20:53;12.30;88.60
814;DHT22;389;48.710;9.392;2024-01-25T15:23:18;12.20;88.70
814;DHT22;389;48.710;9.392;2024-01-25T15:25:44;12.20;89.40
814;DHT22;389;48.710;9.392;2024-01-25T15:28:10;12.10;90.10
814;DHT22;389;48.710;9.392;2024-01-25T15:30:35;12.00;90.70
814;DHT22;389;48.710;9.392;2024-01-25T15:33:01;12.00;91.40
814;DHT22;389;48.710;9.392;2024-01-25T15:35:28;11.90;91.70
814;DHT22;389;48.710;9.392;2024-01-25T15:37:53;12.00;92.20
814;DHT22;389;48.710;9.392;2024-01-25T15:40:19;12.00;92.40
814;DHT22;389;48.710;9.392;2024-01-25T15:42:45;12.00;92.60
814;DHT22;389;48.710;9.392;2024-01-25T15:45:11;12.00;92.70
814;DHT22;389;48.710;9.392;2024-01-25T15:47:37;12.00;92.80
814;DHT22;389;48.710;9.392;2024-01-25T15:50:03;12.00;92.80
814;DHT22;389;48.710;9.392;2024-01-25T15:52:34;12.00;93.00
814;DHT22;389;48.710;9.392;2024-01-25T15:55:00;12.00;93.30
814;DHT22;389;48.710;9.392;2024-01-25T15:57:26;11.90;93.40
814;DHT22;389;48.710;9.392;2024-01-25T15:59:51;11.80;93.40
814;DHT22;389;48.710;9.392;2024-01-25T16:02:17;11.80;93.70
814;DHT22;389;48.710;9.392;2024-01-25T16:04:43;11.80;93.70
814;DHT22;389;48.710;9.392;2024-01-25T16:07:09;11.70;93.70
814;DHT22;389;48.710;9.392;2024-01-25T16:09:38;11.70;93.80
814;DHT22;389;48.710;9.392;2024-01-25T16:12:06;11.70;93.90
814;DHT22;389;48.710;9.392;2024-01-25T16:14:31;11.70;94.00
814;DHT22;389;48.710;9.392;2024-01-25T16:16:57;11.70;94.10
814;DHT22;389;48.710;9.392;2024-01-25T16:19:22;11.70;94.50
814;DHT22;389;48.710;9.392;2024-01-25T16:21:48;11.60;94.40
814;DHT22;389;48.710;9.392;2024-01-25T16:24:14;11.60;94.50
814;DHT22;389;48.710;9.392;2024-01-25T16:26:39;11.60;94.60
814;DHT22;389;48.710;9.392;2024-01-25T16:29:05;11.60;94.70
814;DHT22;389;48.710;9.392;2024-01-25T16:31:30;11.50;94.70
814;DHT22;389;48.710;9.392;2024-01-25T16:33:56;11.60;94.70